createdAt,value
2023-03-23T00:00:19.192Z,0.90
2023-03-23T00:01:19.094Z,0.90
2023-03-23T00:03:47.100Z,1.00
2023-03-23T00:04:47.135Z,1.10
2023-03-23T00:05:47.096Z,1.00
2023-03-23T00:06:47.093Z,0.90
2023-03-23T00:07:47.084Z,1.10
2023-03-23T00:08:47.063Z,0.90
2023-03-23T00:09:47.067Z,0.90
2023-03-23T00:10:47.048Z,1.10
2023-03-23T00:11:47.032Z,0.90
2023-03-23T00:12:47.020Z,0.90
2023-03-23T00:13:47.015Z,0.90
2023-03-23T00:14:47.012Z,0.90
2023-03-23T00:15:46.992Z,0.80
2023-03-23T00:16:46.976Z,1.10
2023-03-23T00:17:46.978Z,1.00
2023-03-23T00:18:46.978Z,1.00
2023-03-23T00:19:46.966Z,1.00
2023-03-23T00:20:46.941Z,0.80
2023-03-23T00:21:46.934Z,0.80
2023-03-23T00:22:46.923Z,1.00
2023-03-23T00:23:46.911Z,0.90
2023-03-23T00:24:46.949Z,1.10
2023-03-23T00:25:46.897Z,0.90
2023-03-23T00:26:48.069Z,1.10
2023-03-23T00:27:46.875Z,0.90
2023-03-23T00:28:46.864Z,1.10
2023-03-23T00:29:46.854Z,0.90
2023-03-23T00:30:46.862Z,1.20
2023-03-23T00:31:46.831Z,1.10
2023-03-23T00:32:46.815Z,1.20
2023-03-23T00:33:46.821Z,0.70
2023-03-23T00:34:46.804Z,0.90
2023-03-23T00:35:46.836Z,1.20
2023-03-23T00:36:46.780Z,1.10
2023-03-23T00:37:46.775Z,0.80
2023-03-23T00:38:46.759Z,1.00
2023-03-23T00:39:46.757Z,1.10
2023-03-23T00:40:46.754Z,1.30
2023-03-23T00:41:46.729Z,1.00
2023-03-23T00:42:46.728Z,0.90
2023-03-23T00:43:46.720Z,1.10
2023-03-23T00:44:46.697Z,0.70
2023-03-23T00:45:46.702Z,0.90
2023-03-23T00:46:46.674Z,1.00
2023-03-23T00:47:46.671Z,1.00
2023-03-23T00:48:46.659Z,1.00
2023-03-23T00:49:46.652Z,1.10
2023-03-23T00:50:46.646Z,0.80
2023-03-23T00:51:46.652Z,0.90
2023-03-23T00:52:46.616Z,1.00
2023-03-23T00:53:46.619Z,1.00
2023-03-23T00:54:46.597Z,1.10
2023-03-23T00:55:46.603Z,0.90
2023-03-23T00:56:46.578Z,1.00
2023-03-23T00:57:46.567Z,0.90
2023-03-23T00:58:46.560Z,0.90
2023-03-23T00:59:46.549Z,1.40
2023-03-23T01:00:46.561Z,1.10
2023-03-23T01:01:46.532Z,0.90
2023-03-23T01:02:46.526Z,1.00
2023-03-23T01:03:46.508Z,0.90
2023-03-23T01:04:46.509Z,1.00
2023-03-23T01:05:46.501Z,1.00
2023-03-23T01:06:46.478Z,1.00
2023-03-23T01:07:46.476Z,1.00
2023-03-23T01:08:46.456Z,0.90
2023-03-23T01:09:46.455Z,0.80
2023-03-23T01:10:46.459Z,1.00
2023-03-23T01:11:46.467Z,0.90
2023-03-23T01:12:47.595Z,1.00
2023-03-23T01:13:47.575Z,1.10
2023-03-23T01:14:47.537Z,1.00
2023-03-23T01:15:47.559Z,1.20
2023-03-23T01:16:47.530Z,1.00
2023-03-23T01:17:47.513Z,1.10
2023-03-23T01:18:47.493Z,0.90
2023-03-23T01:19:47.537Z,0.90
2023-03-23T01:20:47.511Z,0.90
2023-03-23T01:21:47.483Z,0.90
2023-03-23T01:22:47.504Z,0.90
2023-03-23T01:23:47.460Z,0.90
2023-03-23T01:24:47.446Z,1.00
2023-03-23T01:25:47.457Z,1.10
2023-03-23T01:26:47.441Z,0.90
2023-03-23T01:27:47.422Z,1.10
2023-03-23T01:28:47.430Z,0.90
2023-03-23T01:29:47.393Z,0.90
2023-03-23T01:30:47.401Z,0.90
2023-03-23T01:31:47.396Z,1.10
2023-03-23T01:32:47.384Z,0.90
2023-03-23T01:33:47.392Z,0.80
2023-03-23T01:34:47.377Z,1.00
2023-03-23T01:35:47.390Z,0.90
2023-03-23T01:36:47.341Z,0.90
2023-03-23T01:37:47.382Z,0.80
2023-03-23T01:38:47.366Z,0.80
2023-03-23T01:39:47.337Z,1.10
2023-03-23T01:40:47.350Z,0.90
2023-03-23T01:41:47.357Z,1.00
2023-03-23T01:42:47.300Z,0.90
2023-03-23T01:43:47.302Z,0.90
2023-03-23T01:44:47.305Z,1.00
2023-03-23T01:45:47.300Z,1.00
2023-03-23T01:46:47.268Z,0.90
2023-03-23T01:47:47.253Z,1.00
2023-03-23T01:48:47.252Z,0.90
2023-03-23T01:49:47.242Z,1.00
2023-03-23T01:50:47.268Z,0.70
2023-03-23T01:51:47.280Z,0.80
2023-03-23T01:52:47.240Z,0.90
2023-03-23T01:53:47.186Z,0.80
2023-03-23T01:54:47.205Z,0.90
2023-03-23T01:55:47.207Z,0.90
2023-03-23T01:56:47.176Z,1.10
2023-03-23T01:57:47.213Z,0.90
2023-03-23T01:58:47.134Z,1.00
2023-03-23T01:59:47.195Z,1.10
2023-03-23T02:00:47.181Z,1.10
2023-03-23T02:01:47.172Z,0.90
2023-03-23T02:02:47.116Z,1.00
2023-03-23T02:03:47.102Z,0.70
2023-03-23T02:04:47.096Z,0.70
2023-03-23T02:05:47.117Z,0.90
2023-03-23T02:06:47.076Z,0.80
2023-03-23T02:07:47.110Z,1.10
2023-03-23T02:08:47.100Z,1.20
2023-03-23T02:09:47.030Z,0.80
2023-03-23T02:10:47.018Z,1.10
2023-03-23T02:11:47.051Z,1.00
2023-03-23T02:12:47.037Z,1.00
2023-03-23T02:13:47.012Z,1.30
2023-03-23T02:14:47.021Z,0.80
2023-03-23T02:15:47.039Z,0.90
2023-03-23T02:16:46.974Z,1.00
2023-03-23T02:17:47.005Z,1.10
2023-03-23T02:18:46.972Z,0.80
2023-03-23T02:19:46.974Z,1.00
2023-03-23T02:20:46.961Z,1.00
2023-03-23T02:21:46.909Z,0.80
2023-03-23T02:22:46.928Z,1.00
2023-03-23T02:23:46.965Z,1.10
2023-03-23T02:24:46.941Z,0.90
2023-03-23T02:25:46.946Z,1.00
2023-03-23T02:26:46.888Z,1.00
2023-03-23T02:27:46.930Z,1.20
2023-03-23T02:28:46.883Z,1.10
2023-03-23T02:29:46.845Z,1.40
2023-03-23T02:30:46.888Z,1.00
2023-03-23T02:31:46.841Z,0.80
2023-03-23T02:32:46.832Z,1.00
2023-03-23T02:33:46.821Z,1.30
2023-03-23T02:34:46.827Z,0.90
2023-03-23T02:35:46.806Z,1.10
2023-03-23T02:36:46.800Z,1.30
2023-03-23T02:37:46.777Z,1.20
2023-03-23T02:38:46.749Z,1.30
2023-03-23T02:39:46.743Z,1.50
2023-03-23T02:40:46.748Z,1.30
2023-03-23T02:41:46.762Z,1.40
2023-03-23T02:42:46.731Z,1.40
2023-03-23T02:43:46.695Z,1.30
2023-03-23T02:44:46.689Z,1.30
2023-03-23T02:45:46.692Z,1.20
2023-03-23T02:46:46.675Z,1.20
2023-03-23T02:47:46.711Z,1.60
2023-03-23T02:48:46.653Z,1.50
2023-03-23T02:49:46.675Z,1.50
2023-03-23T02:50:46.670Z,1.20
2023-03-23T02:51:46.667Z,1.20
2023-03-23T02:52:46.615Z,1.30
2023-03-23T02:53:46.661Z,1.30
2023-03-23T02:54:46.636Z,1.30
2023-03-23T02:55:46.602Z,1.40
2023-03-23T02:56:46.611Z,1.40
2023-03-23T02:57:46.604Z,1.30
2023-03-23T02:58:46.574Z,1.40
2023-03-23T02:59:46.576Z,1.60
2023-03-23T03:00:46.522Z,1.40
2023-03-23T03:01:46.538Z,1.50
2023-03-23T03:02:46.561Z,1.70
2023-03-23T03:03:46.533Z,1.70
2023-03-23T03:04:46.511Z,1.50
2023-03-23T03:05:46.525Z,1.70
2023-03-23T03:06:46.495Z,1.40
2023-03-23T03:07:46.460Z,1.70
2023-03-23T03:08:46.482Z,1.60
2023-03-23T03:09:46.481Z,1.60
2023-03-23T03:10:46.445Z,1.20
2023-03-23T03:11:46.455Z,1.50
2023-03-23T03:12:46.413Z,1.60
2023-03-23T03:13:46.446Z,1.60
2023-03-23T03:14:46.466Z,1.80
2023-03-23T03:15:46.424Z,1.30
2023-03-23T03:16:46.382Z,1.40
2023-03-23T03:17:46.393Z,1.70
2023-03-23T03:18:46.368Z,1.40
2023-03-23T03:19:46.356Z,1.60
2023-03-23T03:20:46.379Z,1.50
2023-03-23T03:21:46.349Z,1.80
2023-03-23T03:22:46.362Z,1.50
2023-03-23T03:23:46.330Z,1.60
2023-03-23T03:24:46.345Z,1.50
2023-03-23T03:25:46.312Z,1.20
2023-03-23T03:26:46.346Z,1.30
2023-03-23T03:27:46.340Z,1.30
2023-03-23T03:28:46.283Z,1.60
2023-03-23T03:29:46.262Z,1.50
2023-03-23T03:30:46.276Z,1.60
2023-03-23T03:31:46.249Z,1.50
2023-03-23T03:32:46.327Z,1.50
2023-03-23T03:33:46.282Z,1.40
2023-03-23T03:34:46.240Z,1.50
2023-03-23T03:35:46.261Z,1.00
2023-03-23T03:36:46.217Z,1.20
2023-03-23T03:37:46.223Z,1.30
2023-03-23T03:38:46.174Z,1.40
2023-03-23T03:39:46.183Z,1.20
2023-03-23T03:40:46.201Z,1.00
2023-03-23T03:41:46.216Z,1.40
2023-03-23T03:42:46.184Z,1.30
2023-03-23T03:43:46.159Z,1.30
2023-03-23T03:44:46.146Z,1.50
2023-03-23T03:45:46.133Z,1.20
2023-03-23T03:46:46.157Z,1.10
2023-03-23T03:47:46.151Z,1.20
2023-03-23T03:48:46.157Z,1.20
2023-03-23T03:49:46.104Z,1.30
2023-03-23T03:50:46.087Z,1.40
2023-03-23T03:51:46.106Z,1.10
2023-03-23T03:52:46.088Z,1.20
2023-03-23T03:53:46.084Z,1.10
2023-03-23T03:54:46.078Z,1.10
2023-03-23T03:55:46.020Z,1.20
2023-03-23T03:56:46.009Z,1.50
2023-03-23T03:57:46.036Z,1.40
2023-03-23T03:58:45.993Z,1.20
2023-03-23T03:59:46.970Z,1.00
2023-03-23T04:00:45.988Z,1.10
2023-03-23T04:01:45.966Z,1.50
2023-03-23T04:02:45.979Z,1.20
2023-03-23T04:03:45.940Z,1.20
2023-03-23T04:04:45.931Z,1.30
2023-03-23T04:05:45.931Z,1.10
2023-03-23T04:06:46.928Z,1.30
2023-03-23T04:07:45.905Z,1.10
2023-03-23T04:08:45.921Z,1.30
2023-03-23T04:09:46.880Z,1.00
2023-03-23T04:10:45.865Z,1.20
2023-03-23T04:11:45.874Z,1.40
2023-03-23T04:12:45.891Z,1.10
2023-03-23T04:13:45.915Z,1.20
2023-03-23T04:14:45.847Z,1.30
2023-03-23T04:15:45.853Z,1.20
2023-03-23T04:16:46.887Z,1.10
2023-03-23T04:17:46.837Z,1.40
2023-03-23T04:18:45.836Z,1.20
2023-03-23T04:19:46.805Z,1.20
2023-03-23T04:20:46.846Z,1.40
2023-03-23T04:21:45.799Z,1.20
2023-03-23T04:22:45.801Z,1.00
2023-03-23T04:23:45.789Z,1.10
2023-03-23T04:24:56.000Z,1.20
2023-03-23T04:25:46.777Z,1.30
2023-03-23T04:26:45.741Z,1.40
2023-03-23T04:27:45.796Z,1.20
2023-03-23T04:28:45.736Z,1.20
2023-03-23T04:29:45.705Z,1.20
2023-03-23T04:30:45.724Z,1.40
2023-03-23T04:31:45.721Z,1.20
2023-03-23T04:32:45.732Z,1.30
2023-03-23T04:33:59.593Z,1.50
2023-03-23T04:34:46.678Z,1.40
2023-03-23T04:35:45.660Z,1.40
2023-03-23T04:36:57.128Z,1.20
2023-03-23T04:37:46.665Z,1.20
2023-03-23T04:38:45.702Z,1.40
2023-03-23T04:39:45.638Z,1.50
2023-03-23T04:40:45.612Z,1.90
2023-03-23T04:41:45.596Z,1.70
2023-03-23T04:42:45.627Z,1.50
2023-03-23T04:43:45.566Z,1.10
2023-03-23T04:44:45.584Z,1.30
2023-03-23T04:45:45.613Z,1.20
2023-03-23T04:46:45.556Z,1.20
2023-03-23T04:47:45.553Z,1.20
2023-03-23T04:48:45.524Z,1.40
2023-03-23T04:49:45.575Z,1.30
2023-03-23T04:50:45.535Z,1.60
2023-03-23T04:51:45.492Z,1.40
2023-03-23T04:52:45.479Z,1.20
2023-03-23T04:53:45.536Z,1.20
2023-03-23T04:54:45.483Z,1.40
2023-03-23T04:55:45.466Z,1.30
2023-03-23T04:56:45.474Z,1.40
2023-03-23T04:57:45.478Z,1.50
2023-03-23T04:58:45.441Z,1.30
2023-03-23T04:59:45.453Z,1.70
2023-03-23T05:00:45.415Z,1.50
2023-03-23T05:01:45.438Z,1.50
2023-03-23T05:02:45.424Z,1.70
2023-03-23T05:03:45.393Z,1.70
2023-03-23T05:04:45.389Z,1.60
2023-03-23T05:05:45.369Z,1.50
2023-03-23T05:06:45.347Z,1.40
2023-03-23T05:07:45.465Z,1.60
2023-03-23T05:08:45.319Z,1.40
2023-03-23T05:09:45.318Z,1.50
2023-03-23T05:10:45.335Z,1.50
2023-03-23T05:11:45.313Z,1.60
2023-03-23T05:12:45.327Z,1.60
2023-03-23T05:13:45.301Z,1.50
2023-03-23T05:14:45.321Z,1.70
2023-03-23T05:15:45.266Z,1.60
2023-03-23T05:16:45.225Z,1.80
2023-03-23T05:17:45.270Z,1.60
2023-03-23T05:18:45.284Z,1.50
2023-03-23T05:19:45.237Z,1.50
2023-03-23T05:20:45.239Z,1.60
2023-03-23T05:21:45.268Z,1.60
2023-03-23T05:22:45.260Z,1.70
2023-03-23T05:23:45.192Z,1.80
2023-03-23T05:24:45.224Z,1.80
2023-03-23T05:25:45.204Z,1.70
2023-03-23T05:26:45.205Z,1.60
2023-03-23T05:27:45.202Z,1.70
2023-03-23T05:28:45.204Z,1.40
2023-03-23T05:29:45.120Z,1.60
2023-03-23T05:30:45.188Z,1.70
2023-03-23T05:31:45.194Z,1.70
2023-03-23T05:32:45.115Z,1.30
2023-03-23T05:33:45.123Z,1.80
2023-03-23T05:34:45.060Z,1.40
2023-03-23T05:35:45.313Z,1.60
2023-03-23T05:36:45.108Z,1.60
2023-03-23T05:37:45.048Z,1.80
2023-03-23T05:38:45.089Z,2.00
2023-03-23T05:39:45.044Z,1.80
2023-03-23T05:40:45.018Z,1.70
2023-03-23T05:41:46.667Z,1.80
2023-03-23T05:42:45.987Z,1.80
2023-03-23T05:43:45.014Z,1.60
2023-03-23T05:44:44.981Z,1.60
2023-03-23T05:45:44.965Z,1.80
2023-03-23T05:46:44.970Z,1.90
2023-03-23T05:47:44.947Z,1.70
2023-03-23T05:48:44.959Z,1.80
2023-03-23T05:49:44.921Z,1.80
2023-03-23T05:50:44.947Z,1.70
2023-03-23T05:51:44.915Z,1.70
2023-03-23T05:52:44.933Z,2.00
2023-03-23T05:53:44.946Z,2.00
2023-03-23T05:54:44.900Z,1.90
2023-03-23T05:55:44.879Z,2.00
2023-03-23T05:56:44.878Z,1.80
2023-03-23T05:57:44.936Z,2.00
2023-03-23T05:58:44.841Z,2.20
2023-03-23T05:59:44.857Z,2.00
2023-03-23T06:00:44.820Z,2.20
2023-03-23T06:01:44.844Z,2.20
2023-03-23T06:02:45.812Z,2.20
2023-03-23T06:03:44.850Z,2.20
2023-03-23T06:04:44.776Z,2.10
2023-03-23T06:05:44.802Z,2.10
2023-03-23T06:06:44.763Z,2.10
2023-03-23T06:07:44.760Z,2.00
2023-03-23T06:08:44.802Z,2.20
2023-03-23T06:09:44.736Z,2.00
2023-03-23T06:10:44.727Z,2.20
2023-03-23T06:11:44.730Z,2.10
2023-03-23T06:12:44.746Z,2.00
2023-03-23T06:13:44.759Z,2.00
2023-03-23T06:14:44.740Z,2.50
2023-03-23T06:15:44.682Z,2.50
2023-03-23T06:16:44.687Z,2.10
2023-03-23T06:17:44.678Z,2.30
2023-03-23T06:18:44.684Z,2.30
2023-03-23T06:19:44.638Z,2.30
2023-03-23T06:20:45.822Z,2.50
2023-03-23T06:21:44.602Z,2.20
2023-03-23T06:22:44.590Z,2.30
2023-03-23T06:23:44.654Z,2.50
2023-03-23T06:24:44.572Z,2.30
2023-03-23T06:25:44.595Z,2.50
2023-03-23T06:26:44.620Z,2.30
2023-03-23T06:27:46.501Z,2.30
2023-03-23T06:28:46.645Z,2.60
2023-03-23T06:29:44.552Z,2.40
2023-03-23T06:30:44.513Z,2.60
2023-03-23T06:31:44.481Z,2.60
2023-03-23T06:32:44.468Z,2.50
2023-03-23T06:33:44.484Z,2.30
2023-03-23T06:34:44.464Z,2.60
2023-03-23T06:35:44.713Z,2.60
2023-03-23T06:36:44.480Z,2.10
2023-03-23T06:37:44.412Z,2.80
2023-03-23T06:38:44.425Z,2.70
2023-03-23T06:39:44.373Z,2.80
2023-03-23T06:40:44.393Z,2.20
2023-03-23T06:41:44.351Z,2.60
2023-03-23T06:42:44.335Z,2.30
2023-03-23T06:43:44.378Z,2.40
2023-03-23T06:44:44.336Z,2.30
2023-03-23T06:45:44.414Z,2.20
2023-03-23T06:46:44.331Z,2.30
2023-03-23T06:47:44.322Z,2.40
2023-03-23T06:48:44.323Z,2.40
2023-03-23T06:49:44.385Z,2.40
2023-03-23T06:50:44.310Z,1.80
2023-03-23T06:51:44.321Z,1.80
2023-03-23T06:52:44.293Z,1.90
2023-03-23T06:53:44.289Z,2.50
2023-03-23T06:54:44.260Z,2.30
2023-03-23T06:55:44.241Z,1.80
2023-03-23T06:56:44.260Z,2.10
2023-03-23T06:57:44.229Z,2.10
2023-03-23T06:58:44.242Z,1.80
2023-03-23T06:59:44.198Z,2.00
2023-03-23T07:00:44.198Z,2.00
2023-03-23T07:01:44.188Z,2.20
2023-03-23T07:02:44.174Z,1.70
2023-03-23T07:03:44.188Z,2.10
2023-03-23T07:04:44.219Z,2.30
2023-03-23T07:05:44.175Z,2.30
2023-03-23T07:06:44.167Z,2.50
2023-03-23T07:07:44.145Z,2.10
2023-03-23T07:08:44.129Z,1.60
2023-03-23T07:09:44.098Z,2.10
2023-03-23T07:10:44.122Z,1.90
2023-03-23T07:11:44.124Z,2.10
2023-03-23T07:12:44.074Z,1.90
2023-03-23T07:13:44.130Z,2.10
2023-03-23T07:14:44.076Z,2.20
2023-03-23T07:15:44.171Z,1.80
2023-03-23T07:16:44.192Z,2.20
2023-03-23T07:17:44.066Z,1.80
2023-03-23T07:18:44.038Z,2.00
2023-03-23T07:19:44.107Z,2.30
2023-03-23T07:20:44.024Z,2.10
2023-03-23T07:21:43.984Z,2.00
2023-03-23T07:22:44.020Z,2.10
2023-03-23T07:23:44.023Z,1.90
2023-03-23T07:24:44.196Z,2.00
2023-03-23T07:25:44.100Z,2.10
2023-03-23T07:26:44.000Z,1.80
2023-03-23T07:27:44.007Z,1.90
2023-03-23T07:28:43.981Z,1.60
2023-03-23T07:29:43.979Z,2.20
2023-03-23T07:30:43.873Z,1.70
2023-03-23T07:31:44.959Z,2.10
2023-03-23T07:32:43.963Z,1.60
2023-03-23T07:33:43.970Z,1.70
2023-03-23T07:34:43.855Z,1.60
2023-03-23T07:35:44.101Z,1.50
2023-03-23T07:36:43.957Z,1.70
2023-03-23T07:37:44.095Z,1.90
2023-03-23T07:38:43.830Z,1.80
2023-03-23T07:39:43.848Z,1.70
2023-03-23T07:40:43.871Z,1.80
2023-03-23T07:41:43.881Z,1.70
2023-03-23T07:42:43.763Z,1.80
2023-03-23T07:43:43.803Z,1.60
2023-03-23T07:44:44.485Z,1.50
2023-03-23T07:45:43.973Z,1.50
2023-03-23T07:46:43.770Z,1.60
2023-03-23T07:47:43.758Z,1.70
2023-03-23T07:48:43.769Z,1.80
2023-03-23T07:49:43.781Z,1.70
2023-03-23T07:50:43.754Z,1.50
2023-03-23T07:51:43.716Z,1.80
2023-03-23T07:52:43.693Z,1.80
2023-03-23T07:53:43.680Z,1.70
2023-03-23T07:54:43.677Z,1.60
2023-03-23T07:55:44.088Z,1.80
2023-03-23T07:56:43.653Z,1.90
2023-03-23T07:57:43.633Z,2.00
2023-03-23T07:58:43.668Z,2.00
2023-03-23T07:59:43.616Z,1.70
2023-03-23T08:00:43.863Z,1.80
2023-03-23T08:01:43.557Z,2.20
2023-03-23T08:02:43.551Z,2.00
2023-03-23T08:03:43.572Z,1.80
2023-03-23T08:04:43.609Z,1.90
2023-03-23T08:05:43.891Z,1.60
2023-03-23T08:06:44.505Z,1.90
2023-03-23T08:07:43.545Z,1.90
2023-03-23T08:08:43.536Z,1.90
2023-03-23T08:09:43.546Z,1.80
2023-03-23T08:10:43.613Z,1.50
2023-03-23T08:11:43.587Z,1.70
2023-03-23T08:12:43.527Z,2.00
2023-03-23T08:13:43.611Z,2.00
2023-03-23T08:14:43.496Z,1.90
2023-03-23T08:15:43.771Z,1.50
2023-03-23T08:16:43.609Z,1.60
2023-03-23T08:17:43.503Z,1.90
2023-03-23T08:18:43.451Z,1.70
2023-03-23T08:19:43.522Z,1.60
2023-03-23T08:20:43.500Z,2.20
2023-03-23T08:21:43.475Z,1.60
2023-03-23T08:22:51.404Z,1.70
2023-03-23T08:23:45.400Z,1.80
2023-03-23T08:24:43.395Z,1.70
2023-03-23T08:25:43.738Z,1.70
2023-03-23T08:26:43.425Z,1.80
2023-03-23T08:27:43.355Z,1.70
2023-03-23T08:28:43.409Z,1.50
2023-03-23T08:29:43.328Z,1.70
2023-03-23T08:30:43.364Z,1.90
2023-03-23T08:31:43.325Z,1.80
2023-03-23T08:32:43.285Z,1.80
2023-03-23T08:33:43.375Z,1.50
2023-03-23T08:34:43.303Z,1.60
2023-03-23T08:35:43.453Z,1.80
2023-03-23T08:36:43.330Z,1.40
2023-03-23T08:37:43.294Z,1.40
2023-03-23T08:38:43.288Z,1.60
2023-03-23T08:39:43.321Z,1.80
2023-03-23T08:40:43.195Z,1.80
2023-03-23T08:41:44.236Z,1.60
2023-03-23T08:42:43.827Z,1.60
2023-03-23T08:43:44.315Z,1.60
2023-03-23T08:44:43.299Z,1.60
2023-03-23T08:47:40.883Z,1.50
2023-03-23T08:48:41.682Z,1.90
2023-03-23T08:49:41.644Z,1.80
2023-03-23T08:50:40.858Z,1.80
2023-03-23T08:52:14.973Z,1.80
2023-03-23T08:52:41.964Z,1.60
2023-03-23T08:53:40.865Z,1.60
2023-03-23T08:54:40.902Z,1.60
2023-03-23T08:55:41.012Z,1.70
2023-03-23T08:56:40.828Z,1.70
2023-03-23T08:57:40.831Z,1.90
2023-03-23T08:58:40.796Z,1.60
2023-03-23T08:59:40.815Z,1.70
2023-03-23T09:01:18.142Z,1.40
2023-03-23T09:01:41.497Z,1.60
2023-03-23T09:02:40.937Z,1.70
2023-03-23T09:03:40.929Z,1.50
2023-03-23T09:04:40.777Z,1.90
2023-03-23T09:05:40.808Z,1.40
2023-03-23T09:06:41.013Z,1.60
2023-03-23T09:07:40.691Z,1.50
2023-03-23T09:08:40.743Z,1.70
2023-03-23T09:11:24.403Z,2.20
2023-03-23T09:12:20.468Z,1.60
2023-03-23T09:13:15.311Z,1.50
2023-03-23T09:16:14.301Z,1.60
2023-03-23T09:16:54.186Z,1.70
2023-03-23T09:18:34.949Z,1.70
2023-03-23T09:18:47.708Z,1.60
2023-03-23T09:19:47.656Z,2.20
2023-03-23T09:20:48.643Z,2.00
2023-03-23T09:21:47.636Z,1.80
2023-03-23T09:22:47.799Z,1.60
2023-03-23T09:24:13.882Z,2.10
2023-03-23T09:24:47.600Z,1.70
2023-03-23T09:25:47.778Z,1.60
2023-03-23T09:26:56.237Z,1.60
2023-03-23T09:27:47.583Z,1.80
2023-03-23T09:28:47.584Z,1.80
2023-03-23T09:29:47.557Z,2.00
2023-03-23T09:30:53.306Z,1.80
2023-03-23T09:31:48.559Z,1.90
2023-03-23T09:32:47.587Z,1.90
2023-03-23T09:33:47.542Z,1.40
2023-03-23T09:34:47.545Z,1.80
2023-03-23T09:35:47.537Z,1.70
2023-03-23T09:36:47.473Z,1.70
2023-03-23T09:37:47.482Z,1.50
2023-03-23T09:38:47.486Z,1.50
2023-03-23T09:39:47.450Z,2.00
2023-03-23T09:40:48.438Z,1.50
2023-03-23T09:41:47.458Z,1.70
2023-03-23T09:42:47.449Z,1.70
2023-03-23T09:43:47.470Z,1.70
2023-03-23T09:44:47.493Z,1.70
2023-03-23T09:45:48.670Z,1.80
2023-03-23T09:46:48.623Z,1.30
2023-03-23T09:47:48.604Z,1.60
2023-03-23T09:48:48.655Z,1.60
2023-03-23T09:49:48.598Z,1.60
2023-03-23T09:50:48.590Z,1.80
2023-03-23T09:51:48.620Z,1.60
2023-03-23T09:52:48.518Z,1.50
2023-03-23T09:53:48.561Z,1.50
2023-03-23T09:54:48.534Z,1.50
2023-03-23T09:55:48.453Z,1.30
2023-03-23T09:56:48.489Z,1.60
2023-03-23T09:57:48.484Z,1.40
2023-03-23T09:58:48.448Z,1.60
2023-03-23T09:59:48.459Z,1.60
2023-03-23T10:00:48.526Z,1.60
2023-03-23T10:01:48.444Z,1.50
2023-03-23T10:02:49.016Z,1.70
2023-03-23T10:03:48.419Z,1.70
2023-03-23T10:04:48.424Z,1.50
2023-03-23T10:05:48.408Z,1.50
2023-03-23T10:06:48.426Z,1.40
2023-03-23T10:07:50.309Z,1.60
2023-03-23T10:08:56.811Z,1.60
2023-03-23T10:09:50.417Z,1.50
2023-03-23T10:10:48.329Z,1.70
2023-03-23T10:11:48.761Z,1.70
2023-03-23T10:12:49.277Z,1.60
2023-03-23T10:13:48.251Z,1.50
2023-03-23T10:14:48.264Z,1.40
2023-03-23T10:15:48.269Z,1.50
2023-03-23T10:16:48.287Z,1.40
2023-03-23T10:17:48.285Z,1.20
2023-03-23T10:18:48.256Z,1.60
2023-03-23T10:19:48.230Z,1.60
2023-03-23T10:20:48.229Z,1.50
2023-03-23T10:21:48.212Z,1.50
2023-03-23T10:22:48.288Z,1.30
2023-03-23T10:23:48.205Z,1.50
2023-03-23T10:24:48.192Z,1.40
2023-03-23T10:25:48.179Z,1.50
2023-03-23T10:26:48.140Z,1.60
2023-03-23T10:27:48.196Z,1.50
2023-03-23T10:28:48.128Z,1.60
2023-03-23T10:29:48.141Z,1.70
2023-03-23T10:30:48.144Z,1.50
2023-03-23T10:31:48.079Z,1.40
2023-03-23T10:32:48.090Z,1.50
2023-03-23T10:33:48.093Z,1.50
2023-03-23T10:34:48.084Z,1.80
2023-03-23T10:35:48.116Z,1.70
2023-03-23T10:36:48.057Z,1.70
2023-03-23T10:37:48.069Z,1.50
2023-03-23T10:38:48.069Z,1.60
2023-03-23T10:39:48.069Z,1.70
2023-03-23T10:40:48.123Z,1.90
2023-03-23T10:41:47.999Z,1.70
2023-03-23T10:42:48.004Z,1.40
2023-03-23T10:43:48.025Z,1.70
2023-03-23T10:44:48.217Z,1.80
2023-03-23T10:45:59.961Z,1.70
2023-03-23T10:46:50.042Z,1.50
2023-03-23T10:47:48.958Z,1.70
2023-03-23T10:48:48.048Z,1.80
2023-03-23T10:49:47.925Z,2.00
2023-03-23T10:50:47.976Z,1.90
2023-03-23T10:51:47.944Z,1.70
2023-03-23T10:52:47.927Z,1.70
2023-03-23T10:53:47.903Z,1.90
2023-03-23T10:54:47.918Z,1.90
2023-03-23T10:55:47.933Z,2.00
2023-03-23T10:56:58.838Z,2.10
2023-03-23T10:57:49.849Z,1.60
2023-03-23T10:58:47.829Z,1.90
2023-03-23T10:59:47.834Z,2.10
2023-03-23T11:00:47.821Z,1.80
2023-03-23T11:01:47.801Z,1.80
2023-03-23T11:02:47.797Z,2.20
2023-03-23T11:03:47.785Z,1.80
2023-03-23T11:04:47.794Z,1.90
2023-03-23T11:05:47.777Z,2.00
2023-03-23T11:06:47.750Z,1.70
2023-03-23T11:07:47.748Z,2.00
2023-03-23T11:08:47.746Z,2.00
2023-03-23T11:09:47.751Z,1.70
2023-03-23T11:10:47.748Z,1.70
2023-03-23T11:11:47.701Z,1.70
2023-03-23T11:12:47.723Z,1.70
2023-03-23T11:13:47.689Z,1.60
2023-03-23T11:14:47.724Z,1.90
2023-03-23T11:15:47.683Z,1.40
2023-03-23T11:16:47.654Z,1.60
2023-03-23T11:17:47.660Z,1.60
2023-03-23T11:18:47.654Z,1.80
2023-03-23T11:19:47.645Z,1.50
2023-03-23T11:20:47.659Z,1.60
2023-03-23T11:21:47.646Z,1.90
2023-03-23T11:22:47.618Z,2.00
2023-03-23T11:23:48.240Z,1.80
2023-03-23T11:24:47.630Z,1.90
2023-03-23T11:25:47.643Z,1.60
2023-03-23T11:26:56.913Z,1.60
2023-03-23T11:27:49.550Z,2.10
2023-03-23T11:28:47.518Z,1.70
2023-03-23T11:29:55.003Z,1.70
2023-03-23T11:30:48.517Z,1.80
2023-03-23T11:31:47.524Z,1.70
2023-03-23T11:32:47.488Z,1.70
2023-03-23T11:33:52.038Z,1.60
2023-03-23T11:34:48.483Z,1.80
2023-03-23T11:35:47.493Z,1.40
2023-03-23T11:36:47.449Z,1.50
2023-03-23T11:37:47.438Z,1.90
2023-03-23T11:38:47.445Z,1.40
2023-03-23T11:39:47.425Z,1.50
2023-03-23T11:40:47.413Z,1.50
2023-03-23T11:41:48.203Z,1.50
2023-03-23T11:42:47.464Z,1.50
2023-03-23T11:43:47.496Z,1.60
2023-03-23T11:44:47.406Z,1.50
2023-03-23T11:45:47.549Z,1.50
2023-03-23T11:46:48.460Z,1.80
2023-03-23T11:47:47.473Z,1.60
2023-03-23T11:48:47.497Z,1.50
2023-03-23T11:49:47.476Z,1.30
2023-03-23T11:50:47.438Z,1.60
2023-03-23T11:51:47.533Z,1.30
2023-03-23T11:52:56.164Z,1.50
2023-03-23T11:54:21.465Z,1.30
2023-03-23T11:54:47.307Z,1.60
2023-03-23T11:55:47.328Z,1.60
2023-03-23T11:56:47.257Z,2.00
2023-03-23T11:57:47.298Z,1.90
2023-03-23T11:58:47.348Z,1.70
2023-03-23T11:59:47.274Z,1.70
2023-03-23T12:00:48.581Z,1.40
2023-03-23T12:01:47.236Z,1.50
2023-03-23T12:02:47.244Z,1.90
2023-03-23T12:03:47.231Z,1.70
2023-03-23T12:04:47.189Z,1.80
2023-03-23T12:05:47.262Z,1.70
2023-03-23T12:06:47.228Z,2.10
2023-03-23T12:07:47.167Z,2.20
2023-03-23T12:08:47.272Z,1.60
2023-03-23T12:09:47.151Z,1.70
2023-03-23T12:11:48.167Z,1.60
2023-03-23T12:12:47.168Z,1.80
2023-03-23T12:13:52.969Z,1.80
2023-03-23T12:14:48.103Z,1.80
2023-03-23T12:15:47.208Z,1.70
2023-03-23T12:16:47.154Z,1.60
2023-03-23T12:17:47.136Z,1.70
2023-03-23T12:18:47.084Z,1.90
2023-03-23T12:19:47.090Z,1.60
2023-03-23T12:20:47.113Z,2.50
2023-03-23T12:21:47.042Z,1.90
2023-03-23T12:22:47.043Z,1.60
2023-03-23T12:23:47.032Z,1.60
2023-03-23T12:24:47.039Z,1.60
2023-03-23T12:25:51.503Z,1.40
2023-03-23T12:26:47.066Z,1.50
2023-03-23T12:27:47.064Z,1.60
2023-03-23T12:28:47.020Z,1.40
2023-03-23T12:29:47.061Z,1.40
2023-03-23T12:30:47.076Z,1.30
2023-03-23T12:31:47.017Z,1.40
2023-03-23T12:32:48.033Z,1.50
2023-03-23T12:33:48.870Z,1.40
2023-03-23T12:34:46.946Z,1.50
2023-03-23T12:35:47.079Z,1.50
2023-03-23T12:36:46.930Z,1.80
2023-03-23T12:37:47.002Z,1.80
2023-03-23T12:38:46.953Z,1.50
2023-03-23T12:39:46.918Z,1.40
2023-03-23T12:40:47.086Z,1.80
2023-03-23T12:41:47.002Z,1.40
2023-03-23T12:42:46.944Z,1.60
2023-03-23T12:43:46.936Z,1.20
2023-03-23T12:44:46.928Z,1.10
2023-03-23T12:45:46.969Z,1.40
2023-03-23T12:46:47.819Z,1.40
2023-03-23T12:47:46.884Z,1.20
2023-03-23T12:48:46.915Z,1.40
2023-03-23T12:49:46.843Z,1.30
2023-03-23T12:50:46.894Z,1.60
2023-03-23T12:51:46.754Z,1.10
2023-03-23T12:52:46.824Z,1.60
2023-03-23T12:53:46.756Z,1.20
2023-03-23T12:54:46.760Z,1.40
2023-03-23T12:55:46.737Z,1.40
2023-03-23T12:56:46.776Z,1.20
2023-03-23T12:57:46.676Z,1.30
2023-03-23T12:58:47.522Z,1.50
2023-03-23T12:59:46.716Z,1.30
2023-03-23T13:00:46.680Z,1.70
2023-03-23T13:01:46.688Z,1.50
2023-03-23T13:02:46.703Z,1.00
2023-03-23T13:03:48.157Z,1.30
2023-03-23T13:04:47.325Z,1.40
2023-03-23T13:05:46.741Z,1.20
2023-03-23T13:06:46.659Z,1.10
2023-03-23T13:07:46.710Z,1.10
2023-03-23T13:08:46.640Z,1.50
2023-03-23T13:09:46.605Z,1.50
2023-03-23T13:10:46.660Z,1.40
2023-03-23T13:11:46.596Z,1.40
2023-03-23T13:12:46.593Z,1.40
2023-03-23T13:13:54.922Z,1.40
2023-03-23T13:14:48.639Z,1.50
2023-03-23T13:15:46.550Z,1.40
2023-03-23T13:16:46.630Z,1.20
2023-03-23T13:17:46.639Z,1.20
2023-03-23T13:18:46.583Z,1.30
2023-03-23T13:19:46.515Z,1.10
2023-03-23T13:20:46.485Z,1.30
2023-03-23T13:21:52.681Z,1.40
2023-03-23T13:22:50.330Z,1.60
2023-03-23T13:23:46.470Z,1.40
2023-03-23T13:24:46.478Z,1.20
2023-03-23T13:25:46.454Z,1.30